Terminal Aerodrome Forecast
Issued by NWS

Home | Current Version | Previous Version | Text Only | Print | Product List | Glossary On
Versions: 1 2 3 4 5 6 7 8 9 10 11 12 13 14 15 16 17 18 19
000
FTUS45 KCYS 230823 AAA
TAFRWL
TAF AMD
KRWL 230823Z 2308/2406 VRB05KT P6SM BKN035
     FM231800 22009KT P6SM VCSH OVC030
     FM232300 28009KT 2SM -SN BR BKN030=

USA.gov is the U.S. government's official web portal to all federal, state and local government web resources and services.